createdAt,value
2022-09-28T00:01:06.395Z,99.90
2022-09-28T00:03:34.102Z,99.90
2022-09-28T00:06:03.379Z,99.90
2022-09-28T00:08:31.268Z,99.90
2022-09-28T00:10:59.604Z,99.90
2022-09-28T00:13:28.095Z,99.90
2022-09-28T00:16:06.321Z,99.90
2022-09-28T00:18:35.964Z,99.90
2022-09-28T00:21:05.917Z,99.90
2022-09-28T00:23:34.445Z,99.90
2022-09-28T00:26:05.304Z,99.90
2022-09-28T00:28:33.419Z,99.90
2022-09-28T00:31:01.243Z,99.90
2022-09-28T00:33:30.320Z,99.90
2022-09-28T00:35:59.319Z,99.90
2022-09-28T00:38:29.248Z,99.90
2022-09-28T00:40:57.080Z,99.90
2022-09-28T00:43:26.303Z,99.90
2022-09-28T00:46:00.018Z,99.90
2022-09-28T00:48:33.294Z,99.90
2022-09-28T00:51:05.420Z,99.90
2022-09-28T00:53:35.790Z,99.90
2022-09-28T00:56:07.297Z,99.90
2022-09-28T00:58:38.838Z,99.90
2022-09-28T01:01:07.935Z,99.90
2022-09-28T01:03:38.619Z,99.90
2022-09-28T01:06:08.606Z,99.90
2022-09-28T01:08:37.869Z,99.90
2022-09-28T01:11:06.268Z,99.90
2022-09-28T01:13:34.459Z,99.90
2022-09-28T01:16:13.056Z,99.90
2022-09-28T01:18:52.573Z,99.90
2022-09-28T01:21:22.327Z,99.90
2022-09-28T01:24:15.391Z,99.90
2022-09-28T01:26:57.522Z,99.90
2022-09-28T01:29:45.717Z,99.90
2022-09-28T01:32:22.067Z,99.90
2022-09-28T01:34:58.727Z,99.90
2022-09-28T01:37:31.989Z,99.90
2022-09-28T01:40:03.524Z,99.90
2022-09-28T01:42:35.814Z,99.90
2022-09-28T01:45:07.876Z,99.90
2022-09-28T01:47:40.145Z,99.90
2022-09-28T01:50:12.401Z,99.90
2022-09-28T01:52:46.682Z,99.90
2022-09-28T01:55:21.703Z,99.90
2022-09-28T01:57:56.302Z,99.90
2022-09-28T02:00:26.048Z,99.90
2022-09-28T02:02:58.323Z,99.90
2022-09-28T02:05:30.987Z,99.90
2022-09-28T02:08:04.468Z,99.90
2022-09-28T02:10:39.205Z,99.90
2022-09-28T02:13:12.968Z,99.90
2022-09-28T02:15:46.688Z,99.90
2022-09-28T02:18:15.015Z,99.90
2022-09-28T02:20:48.156Z,99.90
2022-09-28T02:23:17.771Z,99.90
2022-09-28T02:25:49.713Z,99.90
2022-09-28T02:28:18.992Z,99.90
2022-09-28T02:30:47.119Z,99.90
2022-09-28T02:33:19.061Z,99.90
2022-09-28T02:35:47.092Z,99.90
2022-09-28T02:38:16.374Z,99.90
2022-09-28T02:40:49.097Z,99.90
2022-09-28T02:43:24.299Z,99.90
2022-09-28T02:46:02.975Z,99.90
2022-09-28T02:49:00.159Z,99.90
2022-09-28T02:51:41.796Z,99.90
2022-09-28T02:54:24.566Z,99.90
2022-09-28T02:57:02.875Z,99.90
2022-09-28T02:59:46.011Z,99.90
2022-09-28T03:02:23.567Z,99.90
2022-09-28T03:05:04.948Z,99.90
2022-09-28T03:07:37.392Z,99.90
2022-09-28T03:10:12.225Z,99.90
2022-09-28T03:12:40.490Z,99.90
2022-09-28T03:15:13.276Z,99.90
2022-09-28T03:17:41.324Z,99.90
2022-09-28T03:20:11.571Z,99.90
2022-09-28T03:22:39.291Z,99.90
2022-09-28T03:25:08.547Z,99.90
2022-09-28T03:27:36.279Z,99.90
2022-09-28T03:30:04.668Z,99.90
2022-09-28T03:32:33.704Z,99.90
2022-09-28T03:35:01.443Z,99.90
2022-09-28T03:37:29.839Z,99.90
2022-09-28T03:39:57.666Z,99.90
2022-09-28T03:42:25.616Z,99.90
2022-09-28T03:44:53.316Z,99.90
2022-09-28T03:47:21.298Z,99.90
2022-09-28T03:49:50.310Z,99.90
2022-09-28T03:52:17.998Z,99.90
2022-09-28T03:54:49.096Z,99.90
2022-09-28T03:57:17.126Z,99.90
2022-09-28T03:59:44.832Z,99.90
2022-09-28T04:02:12.562Z,99.90
2022-09-28T04:04:40.322Z,99.90
2022-09-28T04:07:09.332Z,99.90
2022-09-28T04:09:37.020Z,99.90
2022-09-28T04:12:04.914Z,99.90
2022-09-28T04:14:32.619Z,99.90
2022-09-28T04:17:00.315Z,99.90
2022-09-28T04:19:28.093Z,99.90
2022-09-28T04:21:55.778Z,99.90
2022-09-28T04:24:24.819Z,99.90
2022-09-28T04:27:12.589Z,99.90
2022-09-28T04:29:43.015Z,99.90
2022-09-28T04:32:11.285Z,99.90
2022-09-28T04:34:43.266Z,99.90
2022-09-28T04:37:11.728Z,99.90
2022-09-28T04:39:44.996Z,99.90
2022-09-28T04:42:15.719Z,99.90
2022-09-28T04:44:43.443Z,99.90
2022-09-28T04:47:11.216Z,99.90
2022-09-28T04:49:39.244Z,99.90
2022-09-28T04:52:07.760Z,99.90
2022-09-28T04:54:35.787Z,99.90
2022-09-28T04:57:05.999Z,99.90
2022-09-28T04:59:33.836Z,99.90
2022-09-28T05:02:01.609Z,99.90
2022-09-28T05:04:30.421Z,99.90
2022-09-28T05:06:58.289Z,99.90
2022-09-28T05:09:25.992Z,99.90
2022-09-28T05:11:54.000Z,99.90
2022-09-28T05:14:23.087Z,99.90
2022-09-28T05:16:50.924Z,99.90
2022-09-28T05:19:18.904Z,99.90
2022-09-28T05:21:48.663Z,99.90
2022-09-28T05:24:16.425Z,99.90
2022-09-28T05:26:44.096Z,99.90
2022-09-28T05:29:11.848Z,99.90
2022-09-28T05:31:40.929Z,99.90
2022-09-28T05:34:08.710Z,99.90
2022-09-28T05:36:38.624Z,99.90
2022-09-28T05:39:06.713Z,99.90
2022-09-28T05:41:34.655Z,99.90
2022-09-28T05:44:02.730Z,99.90
2022-09-28T05:46:30.622Z,99.90
2022-09-28T05:49:00.212Z,99.90
2022-09-28T05:51:27.896Z,99.90
2022-09-28T05:53:56.385Z,99.90
2022-09-28T05:56:24.091Z,99.90
2022-09-28T05:58:51.799Z,99.90
2022-09-28T06:01:19.506Z,99.90
2022-09-28T06:03:47.216Z,99.90
2022-09-28T06:06:16.307Z,99.90
2022-09-28T06:08:46.097Z,99.90
2022-09-28T06:11:13.901Z,99.90
2022-09-28T06:13:41.628Z,99.90
2022-09-28T06:16:10.477Z,99.90
2022-09-28T06:18:38.328Z,99.90
2022-09-28T06:21:08.141Z,99.90
2022-09-28T06:23:39.955Z,99.90
2022-09-28T06:26:08.702Z,99.90
2022-09-28T06:28:36.995Z,99.90
2022-09-28T06:31:04.831Z,99.90
2022-09-28T06:33:32.546Z,99.90
2022-09-28T06:36:00.832Z,99.90
2022-09-28T06:38:29.081Z,99.90
2022-09-28T06:40:59.223Z,99.90
2022-09-28T06:43:32.119Z,99.90
2022-09-28T06:46:02.822Z,99.90
2022-09-28T06:48:31.676Z,99.90
2022-09-28T06:50:59.441Z,99.90
2022-09-28T06:53:28.100Z,99.90
2022-09-28T06:55:57.844Z,99.90
2022-09-28T06:58:28.068Z,99.90
2022-09-28T07:00:59.170Z,99.90
2022-09-28T07:03:27.483Z,99.90
2022-09-28T07:05:56.634Z,99.90
2022-09-28T07:08:26.272Z,99.90
2022-09-28T07:10:56.096Z,99.90
2022-09-28T07:13:50.427Z,99.90
2022-09-28T07:16:15.672Z,99.90
2022-09-28T07:18:43.444Z,99.90
2022-09-28T07:21:21.927Z,99.90
2022-09-28T07:23:54.216Z,99.90
2022-09-28T07:26:24.368Z,99.90
2022-09-28T07:28:55.737Z,99.90
2022-09-28T07:31:25.094Z,99.90
2022-09-28T07:33:53.752Z,99.90
2022-09-28T07:36:22.552Z,99.90
2022-09-28T07:38:50.482Z,99.90
2022-09-28T07:41:22.276Z,90.90
2022-09-28T07:43:50.681Z,81.00
2022-09-28T07:46:21.126Z,77.00
2022-09-28T07:48:51.625Z,72.20
2022-09-28T07:51:20.037Z,71.70
2022-09-28T07:53:47.932Z,66.40
2022-09-28T07:56:17.291Z,65.20
2022-09-28T07:58:45.013Z,60.80
2022-09-28T08:01:14.873Z,57.00
2022-09-28T08:03:47.186Z,54.90
2022-09-28T08:06:17.574Z,53.00
2022-09-28T08:08:46.010Z,51.00
2022-09-28T08:11:16.610Z,50.10
2022-09-28T08:13:45.613Z,49.60
2022-09-28T08:16:13.755Z,49.50
2022-09-28T08:18:41.575Z,51.60
2022-09-28T08:21:29.496Z,53.00
2022-09-28T08:23:57.552Z,54.40
2022-09-28T08:26:25.251Z,58.90
2022-09-28T08:28:52.918Z,62.80
2022-09-28T08:31:20.788Z,66.30
2022-09-28T08:33:54.230Z,61.90
2022-09-28T08:36:23.877Z,56.80
2022-09-28T08:38:51.942Z,52.40
2022-09-28T08:41:31.299Z,54.60
2022-09-28T08:44:11.895Z,56.40
2022-09-28T08:46:43.336Z,54.50
2022-09-28T08:49:25.032Z,57.40
2022-09-28T08:52:00.266Z,61.40
2022-09-28T08:54:37.801Z,65.20
2022-09-28T08:57:12.220Z,61.20
2022-09-28T08:59:52.180Z,60.80
2022-09-28T09:02:25.355Z,60.60
2022-09-28T09:04:54.407Z,63.50
2022-09-28T09:07:37.516Z,66.60
2022-09-28T09:10:14.837Z,70.70
2022-09-28T09:15:41.555Z,76.60
2022-09-28T09:18:21.490Z,77.00
2022-09-28T09:20:53.336Z,76.90
2022-09-28T09:23:34.703Z,71.30
2022-09-28T09:26:10.533Z,66.30
2022-09-28T09:28:56.397Z,63.40
2022-09-28T09:31:38.082Z,58.40
2022-09-28T09:34:20.752Z,59.70
2022-09-28T09:37:01.304Z,61.10
2022-09-28T09:39:42.515Z,63.60
2022-09-28T09:42:29.562Z,67.60
2022-09-28T09:45:23.557Z,71.60
2022-09-28T09:47:59.076Z,77.40
2022-09-28T09:50:31.896Z,82.20
2022-09-28T09:53:03.173Z,84.40
2022-09-28T09:55:38.444Z,85.10
2022-09-28T09:58:12.054Z,82.90
2022-09-28T10:00:41.903Z,75.90
2022-09-28T10:03:22.328Z,66.50
2022-09-28T10:05:57.351Z,61.60
2022-09-28T10:08:26.124Z,62.30
2022-09-28T10:11:03.372Z,62.30
2022-09-28T10:13:32.796Z,62.80
2022-09-28T10:16:00.835Z,63.00
2022-09-28T10:18:29.159Z,65.80
2022-09-28T10:20:56.869Z,66.10
2022-09-28T10:23:27.841Z,68.30
2022-09-28T10:26:03.148Z,63.60
2022-09-28T10:28:36.609Z,59.50
2022-09-28T10:31:35.193Z,56.60
2022-09-28T10:34:03.166Z,52.70
2022-09-28T10:36:38.060Z,53.20
2022-09-28T10:39:06.782Z,53.20
2022-09-28T10:41:50.562Z,53.60
2022-09-28T10:44:19.963Z,54.40
2022-09-28T10:46:57.595Z,56.10
2022-09-28T10:49:27.175Z,56.50
2022-09-28T10:51:57.033Z,57.60
2022-09-28T10:54:26.693Z,58.30
2022-09-28T10:56:57.910Z,58.40
2022-09-28T10:59:39.283Z,58.10
2022-09-28T11:02:21.250Z,57.40
2022-09-28T11:04:55.012Z,55.30
2022-09-28T11:07:26.016Z,54.00
2022-09-28T11:09:56.112Z,53.60
2022-09-28T11:12:27.260Z,52.90
2022-09-28T11:15:00.954Z,52.40
2022-09-28T11:17:32.500Z,50.70
2022-09-28T11:20:02.868Z,52.40
2022-09-28T11:22:41.722Z,53.50
2022-09-28T11:25:23.516Z,52.10
2022-09-28T11:28:01.314Z,52.70
2022-09-28T11:30:31.383Z,53.30
2022-09-28T11:33:04.647Z,51.10
2022-09-28T11:35:45.031Z,49.70
2022-09-28T11:38:34.612Z,49.10
2022-09-28T11:41:17.014Z,49.20
2022-09-28T11:43:57.891Z,48.90
2022-09-28T11:46:34.754Z,49.00
2022-09-28T11:49:07.831Z,48.30
2022-09-28T11:51:38.332Z,48.90
2022-09-28T11:54:14.700Z,50.00
2022-09-28T11:56:47.040Z,52.20
2022-09-28T11:59:21.480Z,54.20
2022-09-28T12:01:54.180Z,54.30
2022-09-28T12:04:27.163Z,55.60
2022-09-28T12:07:00.157Z,55.50
2022-09-28T12:09:36.200Z,56.30
2022-09-28T12:12:16.121Z,56.60
2022-09-28T12:14:48.001Z,57.30
2022-09-28T12:17:23.522Z,57.10
2022-09-28T12:19:57.647Z,58.10
2022-09-28T12:22:32.438Z,58.00
2022-09-28T12:25:01.508Z,58.20
2022-09-28T12:27:38.569Z,57.90
2022-09-28T12:30:15.197Z,56.60
2022-09-28T12:32:47.700Z,55.90
2022-09-28T12:35:18.588Z,54.70
2022-09-28T12:38:08.810Z,52.70
2022-09-28T12:40:46.490Z,52.00
2022-09-28T12:43:33.868Z,51.20
2022-09-28T12:46:22.786Z,52.00
2022-09-28T12:50:07.255Z,51.70
2022-09-28T12:52:05.876Z,51.10
2022-09-28T12:54:48.776Z,51.10
2022-09-28T12:57:41.519Z,51.00
2022-09-28T13:00:12.919Z,52.40
2022-09-28T13:03:16.021Z,52.20
2022-09-28T13:06:17.155Z,51.80
2022-09-28T13:08:57.085Z,52.10
2022-09-28T13:11:33.070Z,52.60
2022-09-28T13:14:15.685Z,53.20
2022-09-28T13:16:54.375Z,53.70
2022-09-28T13:19:36.904Z,55.00
2022-09-28T13:22:24.641Z,55.10
2022-09-28T13:24:56.151Z,55.10
2022-09-28T13:27:30.474Z,56.10
2022-09-28T13:30:02.373Z,56.40
2022-09-28T13:32:31.985Z,57.20
2022-09-28T13:35:02.423Z,57.10
2022-09-28T13:37:30.251Z,56.30
2022-09-28T13:39:58.994Z,54.70
2022-09-28T13:43:00.904Z,54.50
2022-09-28T13:45:56.512Z,54.70
2022-09-28T13:48:28.565Z,54.80
2022-09-28T13:51:21.768Z,54.30
2022-09-28T13:54:06.734Z,54.00
2022-09-28T13:56:40.104Z,54.30
2022-09-28T13:59:16.975Z,54.00
2022-09-28T14:01:55.541Z,54.40
2022-09-28T14:04:25.551Z,53.60
2022-09-28T14:06:57.857Z,53.70
2022-09-28T14:09:42.376Z,54.10
2022-09-28T14:12:43.838Z,54.30
2022-09-28T14:15:39.634Z,54.70
2022-09-28T14:18:15.311Z,55.60
2022-09-28T14:20:53.964Z,56.30
2022-09-28T14:23:45.367Z,56.40
2022-09-28T14:26:42.481Z,56.40
2022-09-28T14:29:28.315Z,54.90
2022-09-28T14:31:58.150Z,56.00
2022-09-28T14:34:37.789Z,55.30
2022-09-28T14:37:39.637Z,54.80
2022-09-28T14:40:36.564Z,54.20
2022-09-28T14:43:38.252Z,54.50
2022-09-28T14:46:29.685Z,54.00
2022-09-28T14:49:01.512Z,54.70
2022-09-28T14:52:02.482Z,54.60
2022-09-28T14:54:40.926Z,54.60
2022-09-28T14:57:18.325Z,55.20
2022-09-28T14:59:47.679Z,55.40
2022-09-28T15:02:24.630Z,55.60
2022-09-28T15:04:55.768Z,55.80
2022-09-28T15:07:27.114Z,55.90
2022-09-28T15:09:56.326Z,56.20
2022-09-28T15:12:28.651Z,56.30
2022-09-28T15:15:01.244Z,56.30
2022-09-28T15:17:38.468Z,57.00
2022-09-28T15:20:21.928Z,57.00
2022-09-28T15:22:52.061Z,57.30
2022-09-28T15:25:22.243Z,57.50
2022-09-28T15:27:55.117Z,58.00
2022-09-28T15:30:26.835Z,57.80
2022-09-28T15:32:56.756Z,56.70
2022-09-28T15:35:26.141Z,57.00
2022-09-28T15:37:55.834Z,55.80
2022-09-28T15:40:32.536Z,54.70
2022-09-28T15:43:02.380Z,54.90
2022-09-28T15:45:35.302Z,54.50
2022-09-28T15:48:21.425Z,54.60
2022-09-28T15:50:59.342Z,55.60
2022-09-28T15:53:27.808Z,56.30
2022-09-28T15:56:03.430Z,57.00
2022-09-28T15:58:32.507Z,57.80
2022-09-28T16:01:22.567Z,58.60
2022-09-28T16:03:51.383Z,59.20
2022-09-28T16:06:19.335Z,59.30
2022-09-28T16:08:49.477Z,59.30
2022-09-28T16:11:23.800Z,60.80
2022-09-28T16:14:01.685Z,60.30
2022-09-28T16:16:33.988Z,61.50
2022-09-28T16:19:03.168Z,61.10
2022-09-28T16:21:45.190Z,61.70
2022-09-28T16:24:25.381Z,61.70
2022-09-28T16:26:58.770Z,62.90
2022-09-28T16:29:36.384Z,64.30
2022-09-28T16:32:41.529Z,63.60
2022-09-28T16:35:21.509Z,64.40
2022-09-28T16:37:56.420Z,65.60
2022-09-28T16:40:27.297Z,66.80
2022-09-28T16:42:58.168Z,67.80
2022-09-28T16:45:28.391Z,67.00
2022-09-28T16:47:57.515Z,67.80
2022-09-28T16:50:26.400Z,68.50
2022-09-28T16:53:19.409Z,69.20
2022-09-28T16:55:49.452Z,69.70
2022-09-28T16:58:17.169Z,70.40
2022-09-28T17:00:46.244Z,72.10
2022-09-28T17:03:15.926Z,72.20
2022-09-28T17:05:44.031Z,73.10
2022-09-28T17:08:17.133Z,74.20
2022-09-28T17:11:12.996Z,75.60
2022-09-28T17:13:38.687Z,77.50
2022-09-28T17:16:12.791Z,81.60
2022-09-28T17:18:41.039Z,88.10
2022-09-28T17:21:13.082Z,91.10
2022-09-28T17:23:43.096Z,91.00
2022-09-28T17:26:20.149Z,91.80
2022-09-28T17:28:48.115Z,90.90
2022-09-28T17:31:17.780Z,91.60
2022-09-28T17:33:45.913Z,92.90
2022-09-28T17:36:16.629Z,93.40
2022-09-28T17:38:45.076Z,94.20
2022-09-28T17:41:18.055Z,94.40
2022-09-28T17:43:48.361Z,94.90
2022-09-28T17:46:29.058Z,95.50
2022-09-28T17:48:59.463Z,96.10
2022-09-28T17:51:28.234Z,98.40
2022-09-28T17:53:56.841Z,99.90
2022-09-28T17:56:29.721Z,99.90
2022-09-28T17:59:01.200Z,99.90
2022-09-28T18:01:33.949Z,99.90
2022-09-28T18:04:02.709Z,99.90
2022-09-28T18:06:38.320Z,99.90
2022-09-28T18:09:15.330Z,99.90
2022-09-28T18:11:46.079Z,99.90
2022-09-28T18:14:14.294Z,99.90
2022-09-28T18:16:44.085Z,99.90
2022-09-28T18:19:13.169Z,99.90
2022-09-28T18:21:41.067Z,99.90
2022-09-28T18:24:08.921Z,99.90
2022-09-28T18:26:37.809Z,99.90
2022-09-28T18:29:05.734Z,99.90
2022-09-28T18:31:33.749Z,99.90
2022-09-28T18:34:03.009Z,99.90
2022-09-28T18:36:35.592Z,99.90
2022-09-28T18:39:05.418Z,99.90
2022-09-28T18:41:33.405Z,99.90
2022-09-28T18:44:01.513Z,99.90
2022-09-28T18:46:30.163Z,99.90
2022-09-28T18:48:58.520Z,99.90
2022-09-28T18:51:28.080Z,99.90
2022-09-28T18:53:55.993Z,99.90
2022-09-28T18:56:23.862Z,99.90
2022-09-28T18:58:52.527Z,99.90
2022-09-28T19:01:30.718Z,99.90
2022-09-28T19:04:01.079Z,99.90
2022-09-28T19:06:31.984Z,99.90
2022-09-28T19:09:00.914Z,99.90
2022-09-28T19:11:29.098Z,99.90
2022-09-28T19:13:57.459Z,99.90
2022-09-28T19:16:27.272Z,99.90
2022-09-28T19:18:56.354Z,99.90
2022-09-28T19:21:24.529Z,99.90
2022-09-28T19:24:00.922Z,99.90
2022-09-28T19:26:29.727Z,99.90
2022-09-28T19:28:58.353Z,99.90
2022-09-28T19:31:28.001Z,99.90
2022-09-28T19:33:56.021Z,99.90
2022-09-28T19:36:25.612Z,99.90
2022-09-28T19:38:55.200Z,99.90
2022-09-28T19:41:45.551Z,99.90
2022-09-28T19:44:16.720Z,99.90
2022-09-28T19:46:44.797Z,99.90
2022-09-28T19:49:14.508Z,99.90
2022-09-28T19:52:01.776Z,99.90
2022-09-28T19:54:36.561Z,99.90
2022-09-28T19:57:09.001Z,99.90
2022-09-28T19:59:37.415Z,99.90
2022-09-28T20:02:05.725Z,99.90
2022-09-28T20:04:33.581Z,99.90
2022-09-28T20:07:01.806Z,99.90
2022-09-28T20:09:33.604Z,99.90
2022-09-28T20:12:01.894Z,99.90
2022-09-28T20:14:33.131Z,99.90
2022-09-28T20:17:04.547Z,99.90
2022-09-28T20:19:32.650Z,99.90
2022-09-28T20:22:02.586Z,99.90
2022-09-28T20:24:31.123Z,99.90
2022-09-28T20:27:02.714Z,99.90
2022-09-28T20:29:33.272Z,99.90
2022-09-28T20:32:01.731Z,99.90
2022-09-28T20:34:29.520Z,99.90
2022-09-28T20:36:57.404Z,99.90
2022-09-28T20:39:26.066Z,99.90
2022-09-28T20:41:54.994Z,99.90
2022-09-28T20:44:24.337Z,99.90
2022-09-28T20:46:53.978Z,99.90
2022-09-28T20:49:22.884Z,99.90
2022-09-28T20:51:51.099Z,99.90
2022-09-28T20:54:19.259Z,99.90
2022-09-28T20:56:48.189Z,99.90
2022-09-28T20:59:16.546Z,99.90
2022-09-28T21:01:45.822Z,99.90
2022-09-28T21:04:13.637Z,99.90
2022-09-28T21:06:42.959Z,99.90
2022-09-28T21:09:12.217Z,99.90
2022-09-28T21:11:40.374Z,99.90
2022-09-28T21:14:10.111Z,99.90
2022-09-28T21:16:38.894Z,99.90
2022-09-28T21:19:13.214Z,99.90
2022-09-28T21:21:45.177Z,99.90
2022-09-28T21:24:13.413Z,99.90
2022-09-28T21:26:44.973Z,99.90
2022-09-28T21:29:15.384Z,99.90
2022-09-28T21:31:46.622Z,99.90
2022-09-28T21:34:18.626Z,99.90
2022-09-28T21:36:47.148Z,99.90
2022-09-28T21:39:15.164Z,99.90
2022-09-28T21:41:42.985Z,99.90
2022-09-28T21:44:11.517Z,99.90
2022-09-28T21:46:39.857Z,99.90
2022-09-28T21:49:08.892Z,99.90
2022-09-28T21:51:38.526Z,99.90
2022-09-28T21:54:06.576Z,99.90
2022-09-28T21:56:34.428Z,99.90
2022-09-28T21:59:02.850Z,99.90
2022-09-28T22:01:31.675Z,99.90
2022-09-28T22:03:59.698Z,99.90
2022-09-28T22:06:28.938Z,99.90
2022-09-28T22:08:58.883Z,99.90
2022-09-28T22:11:28.595Z,99.90
2022-09-28T22:13:57.751Z,99.90
2022-09-28T22:16:28.063Z,99.90
2022-09-28T22:18:55.904Z,99.90
2022-09-28T22:21:26.329Z,99.90
2022-09-28T22:23:54.316Z,99.90
2022-09-28T22:26:25.514Z,99.90
2022-09-28T22:28:54.942Z,99.90
2022-09-28T22:31:24.250Z,99.90
2022-09-28T22:33:52.296Z,99.90
2022-09-28T22:36:20.385Z,99.90
2022-09-28T22:38:48.877Z,99.90
2022-09-28T22:41:18.677Z,99.90
2022-09-28T22:43:48.684Z,99.90
2022-09-28T22:46:18.647Z,99.90
2022-09-28T22:48:48.362Z,99.90
2022-09-28T22:51:16.675Z,99.90
2022-09-28T22:53:44.787Z,99.90
2022-09-28T22:56:18.205Z,99.90
2022-09-28T22:58:48.327Z,99.90
2022-09-28T23:01:19.112Z,99.90
2022-09-28T23:03:47.699Z,99.90
2022-09-28T23:06:16.993Z,99.90
2022-09-28T23:08:45.495Z,99.90
2022-09-28T23:11:13.300Z,99.90
2022-09-28T23:13:41.019Z,99.90
2022-09-28T23:16:12.811Z,99.90
2022-09-28T23:18:41.665Z,99.90
2022-09-28T23:21:12.290Z,99.90
2022-09-28T23:23:40.063Z,99.90
2022-09-28T23:26:12.258Z,99.90
2022-09-28T23:28:40.037Z,99.90
2022-09-28T23:31:14.850Z,99.90
2022-09-28T23:33:42.896Z,99.90
2022-09-28T23:36:11.067Z,99.90
2022-09-28T23:38:39.429Z,99.90
2022-09-28T23:41:07.820Z,99.90
2022-09-28T23:43:36.116Z,99.90
2022-09-28T23:46:04.800Z,99.90
2022-09-28T23:48:34.450Z,99.90
2022-09-28T23:51:02.793Z,99.90
2022-09-28T23:53:32.103Z,99.90
2022-09-28T23:55:59.865Z,99.90
2022-09-28T23:58:28.128Z,99.90
